Time;durP1;ratioP1;P1;durP2;ratioP2;P2;SDS_P1;SDS_P2;PMS_P1;PMS_P2;Temp;Humidity;BMP_temperature;BMP_pressure;BME280_temperature;BME280_humidity;BME280_pressure;Samples;Min_cycle;Max_cycle;Signal;HPM_P1;HPM_P2
2022/08/05 00:00:15;;;;;;;5.20;1.23;;;;;;;;;;5089316;28;20197;-61
2022/08/05 00:02:43;;;;;;;1.17;1.00;;;;;;;;;;5098237;28;20205;-61
2022/08/05 00:05:19;;;;;;;2.05;1.40;;;;;;;;;;5101255;28;20684;-61
2022/08/05 00:08:08;;;;;;;1.63;1.48;;;;;;;;;;5101821;28;20292;-61
2022/08/05 00:10:56;;;;;;;2.40;1.42;;;;;;;;;;5095051;28;20649;-61
2022/08/05 00:13:27;;;;;;;3.97;2.15;;;;;;;;;;5099871;28;20255;-61
2022/08/05 00:16:09;;;;;;;2.53;1.40;;;;;;;;;;5098197;28;20205;-62
2022/08/05 00:18:40;;;;;;;1.73;1.13;;;;;;;;;;5101308;28;20201;-61
2022/08/05 00:21:09;;;;;;;1.90;1.40;;;;;;;;;;5101044;28;20577;-61
2022/08/05 00:23:37;;;;;;;2.25;1.17;;;;;;;;;;5101030;28;20221;-61
2022/08/05 00:26:20;;;;;;;2.35;1.35;;;;;;;;;;5100767;28;20260;-61
2022/08/05 00:28:48;;;;;;;2.22;1.20;;;;;;;;;;5099142;28;20205;-61
2022/08/05 00:31:18;;;;;;;1.27;1.25;;;;;;;;;;5087998;28;20691;-61
2022/08/05 00:34:06;;;;;;;1.35;1.25;;;;;;;;;;5100791;28;20225;-61
2022/08/05 00:36:54;;;;;;;1.55;1.10;;;;;;;;;;5100736;28;20229;-61
2022/08/05 00:39:41;;;;;;;1.45;1.35;;;;;;;;;;5100812;28;20649;-61
2022/08/05 00:42:31;;;;;;;1.40;1.30;;;;;;;;;;5100518;28;20254;-61
2022/08/05 00:44:59;;;;;;;2.75;1.10;;;;;;;;;;5100688;28;20564;-61
2022/08/05 00:47:28;;;;;;;2.88;1.50;;;;;;;;;;5118353;28;20663;-61
2022/08/05 00:50:16;;;;;;;2.33;1.27;;;;;;;;;;5102190;28;20572;-61
2022/08/05 00:52:47;;;;;;;2.83;1.40;;;;;;;;;;5100642;28;20209;-61
2022/08/05 00:55:15;;;;;;;1.38;1.27;;;;;;;;;;5100484;28;20243;-61
2022/08/05 00:57:45;;;;;;;2.10;1.13;;;;;;;;;;5100440;28;20778;-61
2022/08/05 01:00:26;;;;;;;3.92;1.30;;;;;;;;;;5100384;28;20208;-62
2022/08/05 01:02:56;;;;;;;1.55;1.27;;;;;;;;;;5100215;28;20217;-61
2022/08/05 01:05:26;;;;;;;3.05;1.50;;;;;;;;;;5100336;28;20209;-61
2022/08/05 01:07:55;;;;;;;1.73;1.20;;;;;;;;;;5100182;28;20626;-61
2022/08/05 01:10:45;;;;;;;3.22;1.60;;;;;;;;;;5100081;28;20682;-61
2022/08/05 01:13:23;;;;;;;1.58;1.40;;;;;;;;;;5100006;28;20247;-61
2022/08/05 01:16:13;;;;;;;1.45;1.20;;;;;;;;;;5099186;28;20202;-61
2022/08/05 01:18:57;;;;;;;2.88;1.27;;;;;;;;;;5095495;28;20194;-61
2022/08/05 01:21:51;;;;;;;1.75;1.50;;;;;;;;;;5092901;28;20215;-61
2022/08/05 01:24:26;;;;;;;1.98;1.55;;;;;;;;;;5099966;28;20245;-61
2022/08/05 01:26:59;;;;;;;1.33;1.23;;;;;;;;;;5099828;28;20204;-61
2022/08/05 01:29:47;;;;;;;1.50;1.40;;;;;;;;;;5099994;28;20296;-61
2022/08/05 01:32:16;;;;;;;1.75;1.33;;;;;;;;;;5099947;28;20209;-61
2022/08/05 01:34:47;;;;;;;1.88;1.60;;;;;;;;;;5099793;28;20232;-61
2022/08/05 01:37:17;;;;;;;3.03;1.42;;;;;;;;;;5099994;28;20225;-61
2022/08/05 01:39:54;;;;;;;4.35;1.33;;;;;;;;;;5099672;28;20201;-61
2022/08/05 01:42:26;;;;;;;1.58;1.48;;;;;;;;;;5099629;28;20234;-61
2022/08/05 01:44:56;;;;;;;1.50;1.40;;;;;;;;;;5099376;28;20631;-61
2022/08/05 01:47:26;;;;;;;2.05;1.65;;;;;;;;;;5113087;28;20200;-61
2022/08/05 01:50:08;;;;;;;1.90;1.70;;;;;;;;;;5104387;28;20212;-61
2022/08/05 01:52:43;;;;;;;1.98;1.55;;;;;;;;;;5093391;28;20243;-61
2022/08/05 01:55:18;;;;;;;14.25;2.00;;;;;;;;;;5099405;28;20209;-61
2022/08/05 01:57:47;;;;;;;1.55;1.45;;;;;;;;;;5097815;28;20221;-61
2022/08/05 02:00:38;;;;;;;2.03;1.83;;;;;;;;;;5099114;28;20211;-61
2022/08/05 02:03:21;;;;;;;1.70;1.60;;;;;;;;;;5099224;28;20229;-61
2022/08/05 02:05:58;;;;;;;1.52;1.45;;;;;;;;;;5099091;28;20274;-61
2022/08/05 02:08:39;;;;;;;1.80;1.70;;;;;;;;;;5098984;28;20573;-61
2022/08/05 02:11:22;;;;;;;2.17;1.73;;;;;;;;;;5098885;28;20258;-61
2022/08/05 02:14:02;;;;;;;2.55;1.80;;;;;;;;;;5098785;28;20274;-61
2022/08/05 02:16:34;;;;;;;2.63;1.80;;;;;;;;;;5092245;28;20236;-61
2022/08/05 02:19:07;;;;;;;1.75;1.65;;;;;;;;;;5093839;28;20218;-61
2022/08/05 02:21:37;;;;;;;2.55;1.70;;;;;;;;;;5092147;28;20243;-61
2022/08/05 02:24:16;;;;;;;2.25;1.67;;;;;;;;;;5098687;28;20232;-61
2022/08/05 02:26:49;;;;;;;5.05;1.63;;;;;;;;;;5098579;28;20288;-61
2022/08/05 02:29:22;;;;;;;1.88;1.70;;;;;;;;;;5098683;28;20201;-61
2022/08/05 02:32:13;;;;;;;2.15;1.95;;;;;;;;;;5099006;28;20215;-61
2022/08/05 02:34:57;;;;;;;2.25;1.88;;;;;;;;;;5098675;28;20225;-61
2022/08/05 02:37:30;;;;;;;3.67;2.00;;;;;;;;;;5098556;28;20714;-61
2022/08/05 02:39:58;;;;;;;1.77;1.50;;;;;;;;;;5098546;28;20207;-61
2022/08/05 02:42:27;;;;;;;2.55;1.85;;;;;;;;;;5098491;28;20714;-61
2022/08/05 02:45:02;;;;;;;4.32;2.30;;;;;;;;;;5098509;28;20228;-61
2022/08/05 02:47:32;;;;;;;2.42;1.90;;;;;;;;;;5111245;28;20290;-61
2022/08/05 02:50:22;;;;;;;4.45;2.00;;;;;;;;;;5096277;28;20215;-61
2022/08/05 02:52:50;;;;;;;2.63;1.90;;;;;;;;;;5098461;28;20232;-61
2022/08/05 02:55:19;;;;;;;2.00;1.90;;;;;;;;;;5098020;28;20269;-61
2022/08/05 02:58:07;;;;;;;1.77;1.67;;;;;;;;;;5098110;28;20589;-61
2022/08/05 03:00:40;;;;;;;3.40;1.90;;;;;;;;;;5098460;28;20212;-61
2022/08/05 03:03:15;;;;;;;3.03;2.08;;;;;;;;;;5098052;28;20232;-61
2022/08/05 03:05:43;;;;;;;2.20;2.10;;;;;;;;;;5098689;28;20201;-61
2022/08/05 03:08:32;;;;;;;2.42;2.22;;;;;;;;;;5098153;28;20199;-61
2022/08/05 03:11:00;;;;;;;4.22;2.10;;;;;;;;;;5098256;28;20205;-60
2022/08/05 03:13:48;;;;;;;2.40;2.20;;;;;;;;;;5098546;28;20232;-61
2022/08/05 03:16:29;;;;;;;3.20;1.90;;;;;;;;;;5095040;28;20212;-61
2022/08/05 03:19:00;;;;;;;3.88;2.15;;;;;;;;;;5090770;28;20275;-61
2022/08/05 03:21:39;;;;;;;2.00;1.90;;;;;;;;;;5097324;28;20245;-61
2022/08/05 03:24:16;;;;;;;2.55;1.75;;;;;;;;;;5097777;28;20263;-61
2022/08/05 03:26:54;;;;;;;2.30;2.17;;;;;;;;;;5098059;28;20237;-61
2022/08/05 03:29:22;;;;;;;2.10;2.00;;;;;;;;;;5097724;28;20883;-61
2022/08/05 03:31:50;;;;;;;1.80;1.70;;;;;;;;;;5097821;28;20243;-61
2022/08/05 03:34:28;;;;;;;2.65;2.17;;;;;;;;;;5097767;28;20271;-61
2022/08/05 03:36:56;;;;;;;5.43;2.10;;;;;;;;;;5097788;28;20640;-61
2022/08/05 03:39:24;;;;;;;2.38;2.05;;;;;;;;;;5101780;28;20263;-61
2022/08/05 03:41:53;;;;;;;2.58;2.22;;;;;;;;;;5102103;28;20243;-61
2022/08/05 03:44:23;;;;;;;3.03;2.15;;;;;;;;;;5100166;28;20234;-61
2022/08/05 03:46:51;;;;;;;2.40;2.20;;;;;;;;;;5113284;28;20686;-61
2022/08/05 03:49:19;;;;;;;3.35;1.95;;;;;;;;;;5122081;28;20241;-61
2022/08/05 03:51:56;;;;;;;1.92;1.83;;;;;;;;;;5122490;28;20208;-61
2022/08/05 03:54:48;;;;;;;2.35;2.15;;;;;;;;;;5090878;28;20609;-61
2022/08/05 03:57:37;;;;;;;3.15;2.30;;;;;;;;;;5101655;28;20216;-62
2022/08/05 04:00:11;;;;;;;2.03;1.92;;;;;;;;;;5101408;28;20224;-61
2022/08/05 04:02:43;;;;;;;2.13;1.92;;;;;;;;;;5101364;28;20625;-61
2022/08/05 04:05:25;;;;;;;2.30;2.17;;;;;;;;;;5101747;28;20286;-61
2022/08/05 04:08:02;;;;;;;2.50;2.30;;;;;;;;;;5101685;28;20219;-60
2022/08/05 04:10:33;;;;;;;2.28;2.10;;;;;;;;;;5101314;28;20295;-61
2022/08/05 04:13:05;;;;;;;2.50;2.30;;;;;;;;;;5094744;28;20235;-61
2022/08/05 04:15:33;;;;;;;2.95;2.53;;;;;;;;;;5093090;28;20235;-61
2022/08/05 04:18:03;;;;;;;3.15;2.42;;;;;;;;;;5101153;28;20207;-61
2022/08/05 04:20:36;;;;;;;3.05;2.40;;;;;;;;;;5101314;28;20256;-61
2022/08/05 04:23:10;;;;;;;2.38;2.15;;;;;;;;;;5100283;28;20228;-61
2022/08/05 04:25:39;;;;;;;2.83;2.47;;;;;;;;;;5100699;28;20277;-60
2022/08/05 04:28:27;;;;;;;3.05;2.10;;;;;;;;;;5101116;28;20289;-60
2022/08/05 04:30:58;;;;;;;2.70;2.50;;;;;;;;;;5101240;28;20202;-60
2022/08/05 04:33:28;;;;;;;2.83;2.50;;;;;;;;;;5100770;28;20315;-60
2022/08/05 04:36:16;;;;;;;5.32;2.30;;;;;;;;;;5101069;28;20208;-60
2022/08/05 04:39:05;;;;;;;2.90;2.25;;;;;;;;;;5101117;28;20230;-60
2022/08/05 04:41:34;;;;;;;2.70;2.50;;;;;;;;;;5100600;28;20578;-60
2022/08/05 04:44:05;;;;;;;2.50;2.30;;;;;;;;;;5100792;28;20628;-60
2022/08/05 04:46:36;;;;;;;5.03;2.35;;;;;;;;;;5102872;28;20200;-60
2022/08/05 04:49:04;;;;;;;2.40;2.20;;;;;;;;;;5120764;28;20241;-60
2022/08/05 04:51:41;;;;;;;2.50;2.30;;;;;;;;;;5120932;28;20259;-60
2022/08/05 04:54:13;;;;;;;3.92;2.83;;;;;;;;;;5089877;28;20229;-60
2022/08/05 04:56:41;;;;;;;4.20;2.40;;;;;;;;;;5092709;28;20214;-60
2022/08/05 04:59:10;;;;;;;2.40;2.17;;;;;;;;;;5095062;28;20227;-62
2022/08/05 05:01:51;;;;;;;2.83;2.25;;;;;;;;;;5098141;28;20204;-62
2022/08/05 05:04:39;;;;;;;6.05;2.70;;;;;;;;;;5089216;28;20259;-61
2022/08/05 05:07:11;;;;;;;7.60;2.60;;;;;;;;;;5099144;28;20262;-61
2022/08/05 05:09:44;;;;;;;3.05;2.65;;;;;;;;;;5092587;28;20238;-61
2022/08/05 05:12:12;;;;;;;4.35;2.50;;;;;;;;;;5097127;28;20569;-61
2022/08/05 05:14:41;;;;;;;2.83;2.60;;;;;;;;;;5102348;28;20232;-61
2022/08/05 05:17:17;;;;;;;3.20;2.33;;;;;;;;;;5099733;28;20285;-61
2022/08/05 05:19:53;;;;;;;4.32;2.42;;;;;;;;;;5100178;28;20223;-61
2022/08/05 05:22:21;;;;;;;4.35;2.47;;;;;;;;;;5097985;28;20211;-62
2022/08/05 05:24:54;;;;;;;3.28;2.97;;;;;;;;;;5097871;28;20579;-62
2022/08/05 05:27:26;;;;;;;2.65;2.30;;;;;;;;;;5099805;28;20209;-62
2022/08/05 05:30:13;;;;;;;2.80;2.50;;;;;;;;;;5100214;28;20221;-61
2022/08/05 05:32:56;;;;;;;3.13;2.58;;;;;;;;;;5097527;28;20208;-62
2022/08/05 05:35:28;;;;;;;5.63;2.33;;;;;;;;;;5099851;28;20207;-61
2022/08/05 05:38:06;;;;;;;4.30;2.75;;;;;;;;;;5099122;28;20204;-62
2022/08/05 05:40:41;;;;;;;3.13;2.60;;;;;;;;;;5099655;28;20314;-62
2022/08/05 05:43:18;;;;;;;4.30;2.50;;;;;;;;;;5095365;28;20219;-62
2022/08/05 05:46:06;;;;;;;6.80;2.78;;;;;;;;;;5092319;28;20288;-61
2022/08/05 05:48:43;;;;;;;3.97;2.53;;;;;;;;;;5093592;28;20207;-61
2022/08/05 05:51:17;;;;;;;4.55;2.85;;;;;;;;;;5100855;28;20289;-61
2022/08/05 05:53:45;;;;;;;3.03;2.83;;;;;;;;;;5095471;28;20573;-61
2022/08/05 05:56:27;;;;;;;2.83;2.63;;;;;;;;;;5096806;28;20204;-62
2022/08/05 05:59:00;;;;;;;4.95;2.65;;;;;;;;;;5111618;28;20218;-61
2022/08/05 06:01:30;;;;;;;3.13;2.83;;;;;;;;;;5100448;28;20258;-62
2022/08/05 06:04:05;;;;;;;4.07;2.70;;;;;;;;;;5107615;28;20224;-62
2022/08/05 06:06:34;;;;;;;7.25;3.08;;;;;;;;;;5119962;28;20214;-62
2022/08/05 06:09:02;;;;;;;3.38;3.08;;;;;;;;;;5119506;28;20205;-62
2022/08/05 06:11:32;;;;;;;5.43;3.20;;;;;;;;;;5119512;28;20208;-62
2022/08/05 06:14:00;;;;;;;3.78;3.30;;;;;;;;;;5119534;28;20262;-62
2022/08/05 06:16:28;;;;;;;4.30;2.67;;;;;;;;;;5099468;28;20215;-62
2022/08/05 06:19:04;;;;;;;3.38;2.72;;;;;;;;;;5095027;28;20196;-62
2022/08/05 06:21:34;;;;;;;3.28;2.53;;;;;;;;;;5097840;28;20197;-62
2022/08/05 06:24:06;;;;;;;4.50;2.90;;;;;;;;;;5097458;28;20684;-61
2022/08/05 06:26:40;;;;;;;3.28;2.97;;;;;;;;;;5098520;28;20200;-62
2022/08/05 06:29:18;;;;;;;5.68;3.38;;;;;;;;;;5096141;28;20216;-61
2022/08/05 06:32:06;;;;;;;3.30;2.85;;;;;;;;;;5096446;28;20216;-62
2022/08/05 06:34:54;;;;;;;3.55;3.13;;;;;;;;;;5100375;28;20229;-61
2022/08/05 06:37:24;;;;;;;5.10;3.53;;;;;;;;;;5098358;28;20284;-63
2022/08/05 06:40:12;;;;;;;5.50;3.20;;;;;;;;;;5097053;28;20213;-62
2022/08/05 06:42:46;;;;;;;5.57;3.05;;;;;;;;;;5096881;28;20197;-62
2022/08/05 06:45:19;;;;;;;2.92;2.60;;;;;;;;;;5096216;28;20201;-62
2022/08/05 06:47:48;;;;;;;3.53;3.00;;;;;;;;;;5100512;28;20197;-62
2022/08/05 06:50:37;;;;;;;4.80;3.20;;;;;;;;;;5096995;28;20226;-62
2022/08/05 06:53:05;;;;;;;5.88;2.80;;;;;;;;;;5101654;28;20216;-62
2022/08/05 06:55:52;;;;;;;6.47;3.35;;;;;;;;;;5101596;28;20644;-62
2022/08/05 06:58:22;;;;;;;5.32;3.35;;;;;;;;;;5103872;28;20907;-63
2022/08/05 07:01:04;;;;;;;4.45;2.67;;;;;;;;;;5099730;28;20243;-62
2022/08/05 07:03:33;;;;;;;3.78;2.90;;;;;;;;;;5101410;28;20213;-62
2022/08/05 07:06:02;;;;;;;7.00;3.50;;;;;;;;;;5099876;28;20234;-62
2022/08/05 07:08:41;;;;;;;3.80;3.17;;;;;;;;;;5106812;28;20205;-62
2022/08/05 07:11:09;;;;;;;3.65;2.97;;;;;;;;;;5103140;28;20193;-62
2022/08/05 07:16:58;;;;;;;3.80;2.90;;;;;;;;;;5101041;28;20201;-62
2022/08/05 07:19:46;;;;;;;4.50;3.10;;;;;;;;;;5103655;28;20284;-62
2022/08/05 07:22:34;;;;;;;3.88;3.05;;;;;;;;;;5095889;28;20201;-62
2022/08/05 07:25:02;;;;;;;5.18;3.03;;;;;;;;;;5097266;28;20232;-62
2022/08/05 07:27:51;;;;;;;5.13;2.92;;;;;;;;;;5103893;28;20283;-62
2022/08/05 07:30:32;;;;;;;5.00;3.05;;;;;;;;;;5101534;28;20197;-62
2022/08/05 07:33:06;;;;;;;5.32;2.97;;;;;;;;;;5097203;28;20285;-62
2022/08/05 07:35:37;;;;;;;4.75;3.33;;;;;;;;;;5101253;28;20196;-62
2022/08/05 07:38:25;;;;;;;9.35;3.08;;;;;;;;;;5097093;28;20272;-62
2022/08/05 07:41:02;;;;;;;4.90;2.95;;;;;;;;;;5096860;28;20228;-62
2022/08/05 07:43:50;;;;;;;5.80;3.25;;;;;;;;;;5097437;28;20221;-62
2022/08/05 07:46:20;;;;;;;5.82;3.10;;;;;;;;;;5099119;28;20720;-61
2022/08/05 07:48:52;;;;;;;6.07;2.38;;;;;;;;;;5095215;28;20204;-62
2022/08/05 07:51:31;;;;;;;4.32;3.10;;;;;;;;;;5097525;28;20250;-62
2022/08/05 07:54:05;;;;;;;6.35;2.80;;;;;;;;;;5097220;28;20217;-62
2022/08/05 07:56:35;;;;;;;4.97;2.95;;;;;;;;;;5093903;28;20212;-61
2022/08/05 07:59:23;;;;;;;6.95;2.70;;;;;;;;;;5093733;28;20224;-62
2022/08/05 08:02:08;;;;;;;3.45;3.00;;;;;;;;;;5091655;28;21076;-61
2022/08/05 08:04:44;;;;;;;5.45;2.85;;;;;;;;;;5102014;28;20687;-61
2022/08/05 08:07:12;;;;;;;4.30;2.80;;;;;;;;;;5104072;28;20193;-61
2022/08/05 08:09:40;;;;;;;3.40;2.70;;;;;;;;;;5106645;28;20280;-61
2022/08/05 08:12:08;;;;;;;6.65;2.75;;;;;;;;;;5101293;28;20275;-61
2022/08/05 08:14:56;;;;;;;4.43;3.15;;;;;;;;;;5104427;28;20288;-62
2022/08/05 08:17:31;;;;;;;6.13;3.25;;;;;;;;;;5103323;28;20568;-61
2022/08/05 08:20:04;;;;;;;7.65;2.85;;;;;;;;;;5096459;28;20202;-61
2022/08/05 08:22:52;;;;;;;3.58;3.28;;;;;;;;;;5096492;28;20198;-61
2022/08/05 08:25:23;;;;;;;3.38;3.05;;;;;;;;;;5100633;28;20723;-61
2022/08/05 08:28:11;;;;;;;5.80;2.70;;;;;;;;;;5098552;28;20194;-61
2022/08/05 08:30:59;;;;;;;3.70;3.25;;;;;;;;;;5106384;28;20217;-60
2022/08/05 08:33:29;;;;;;;3.35;2.90;;;;;;;;;;5100932;28;20267;-60
2022/08/05 08:36:04;;;;;;;3.17;2.70;;;;;;;;;;5100180;28;20273;-60
2022/08/05 08:38:54;;;;;;;11.15;3.40;;;;;;;;;;5101442;28;20566;-60
2022/08/05 08:41:24;;;;;;;3.15;2.67;;;;;;;;;;5100819;28;20221;-60
2022/08/05 08:44:13;;;;;;;5.38;3.63;;;;;;;;;;5098771;28;20224;-62
2022/08/05 08:47:02;;;;;;;5.70;3.15;;;;;;;;;;5106826;28;20200;-62
2022/08/05 08:49:52;;;;;;;5.20;2.95;;;;;;;;;;5110434;28;20212;-60
2022/08/05 08:52:42;;;;;;;7.85;3.20;;;;;;;;;;5110997;28;20576;-60
2022/08/05 08:55:18;;;;;;;6.60;2.60;;;;;;;;;;5111282;28;20558;-60
2022/08/05 08:58:06;;;;;;;3.53;2.50;;;;;;;;;;5107379;28;20618;-60
2022/08/05 09:00:35;;;;;;;7.43;2.83;;;;;;;;;;5102612;28;20268;-60
2022/08/05 09:03:05;;;;;;;4.57;2.40;;;;;;;;;;5096236;28;20227;-60
2022/08/05 09:05:34;;;;;;;5.45;3.03;;;;;;;;;;5102156;28;20256;-60
2022/08/05 09:08:23;;;;;;;3.35;2.80;;;;;;;;;;5097771;28;20240;-60
2022/08/05 09:10:54;;;;;;;2.80;2.40;;;;;;;;;;5095321;28;20201;-61
2022/08/05 09:13:22;;;;;;;2.50;2.30;;;;;;;;;;5095698;28;20261;-61
2022/08/05 09:15:50;;;;;;;3.42;2.47;;;;;;;;;;5098382;28;20234;-61
2022/08/05 09:18:18;;;;;;;3.22;2.60;;;;;;;;;;5098868;28;20229;-61
2022/08/05 09:20:50;;;;;;;3.63;2.78;;;;;;;;;;5099802;28;20225;-63
2022/08/05 09:23:19;;;;;;;3.47;2.30;;;;;;;;;;5100067;28;20278;-61
2022/08/05 09:25:50;;;;;;;3.88;2.67;;;;;;;;;;5105240;28;20266;-61
2022/08/05 09:28:33;;;;;;;4.03;2.45;;;;;;;;;;5083786;28;20254;-61
2022/08/05 09:31:04;;;;;;;4.53;2.40;;;;;;;;;;5093113;28;20733;-60
2022/08/05 09:33:55;;;;;;;3.83;2.28;;;;;;;;;;5084335;28;20220;-60
2022/08/05 09:36:26;;;;;;;2.30;2.10;;;;;;;;;;5090760;28;20216;-61
2022/08/05 09:39:00;;;;;;;4.80;2.40;;;;;;;;;;5086592;28;20204;-61
2022/08/05 09:41:29;;;;;;;3.25;2.30;;;;;;;;;;5095188;28;20217;-59
2022/08/05 09:44:00;;;;;;;2.45;2.17;;;;;;;;;;5096502;28;20221;-59
2022/08/05 09:46:34;;;;;;;2.47;2.28;;;;;;;;;;5099441;28;20258;-60
2022/08/05 09:49:06;;;;;;;4.90;2.78;;;;;;;;;;5099206;28;20606;-60
2022/08/05 09:51:47;;;;;;;3.40;2.40;;;;;;;;;;5094744;28;20206;-60
2022/08/05 09:54:17;;;;;;;4.03;2.35;;;;;;;;;;5098624;28;20241;-62
2022/08/05 09:56:55;;;;;;;2.83;2.35;;;;;;;;;;5092393;28;20250;-61
2022/08/05 09:59:28;;;;;;;5.80;2.70;;;;;;;;;;5094744;28;20233;-60
2022/08/05 10:02:02;;;;;;;2.67;2.08;;;;;;;;;;5090686;28;20230;-61
2022/08/05 10:04:35;;;;;;;2.67;2.47;;;;;;;;;;5089762;28;20229;-61
2022/08/05 10:07:07;;;;;;;4.38;2.30;;;;;;;;;;5092255;28;20601;-61
2022/08/05 10:09:53;;;;;;;2.95;2.33;;;;;;;;;;5096949;28;20211;-61
2022/08/05 10:12:43;;;;;;;4.22;2.10;;;;;;;;;;5095206;28;20235;-61
2022/08/05 10:15:17;;;;;;;2.83;2.53;;;;;;;;;;5094757;28;20197;-61
2022/08/05 10:18:03;;;;;;;2.70;2.50;;;;;;;;;;5095391;28;20206;-61
2022/08/05 10:20:32;;;;;;;3.65;2.53;;;;;;;;;;5085815;28;20208;-61
2022/08/05 10:23:02;;;;;;;3.13;1.90;;;;;;;;;;5091352;28;20719;-61
2022/08/05 10:25:35;;;;;;;3.35;2.75;;;;;;;;;;5095016;28;20240;-61
2022/08/05 10:28:04;;;;;;;2.72;2.33;;;;;;;;;;5089285;28;20202;-60
2022/08/05 10:30:44;;;;;;;2.75;2.55;;;;;;;;;;5098636;28;20208;-60
2022/08/05 10:33:33;;;;;;;3.63;2.70;;;;;;;;;;5087470;28;20387;-61
2022/08/05 10:36:03;;;;;;;3.38;2.40;;;;;;;;;;5106081;28;20287;-61
2022/08/05 10:38:35;;;;;;;2.47;2.03;;;;;;;;;;5093755;28;20209;-61
2022/08/05 10:41:07;;;;;;;5.85;2.60;;;;;;;;;;5098299;28;20258;-60
2022/08/05 10:43:43;;;;;;;4.85;2.30;;;;;;;;;;5102713;28;20659;-60
2022/08/05 10:46:13;;;;;;;2.72;2.53;;;;;;;;;;5103948;28;20198;-60
2022/08/05 10:48:42;;;;;;;3.10;2.50;;;;;;;;;;5098219;28;20240;-59
2022/08/05 10:51:25;;;;;;;14.32;3.65;;;;;;;;;;5102593;28;20730;-59
2022/08/05 10:53:58;;;;;;;3.35;3.05;;;;;;;;;;5079326;28;20255;-62
2022/08/05 10:56:47;;;;;;;3.75;2.63;;;;;;;;;;5083689;28;20205;-61
2022/08/05 10:59:17;;;;;;;4.10;2.88;;;;;;;;;;5090071;28;20720;-62
2022/08/05 11:02:08;;;;;;;6.82;2.72;;;;;;;;;;5093915;28;20225;-63
2022/08/05 11:04:56;;;;;;;4.68;2.60;;;;;;;;;;5092048;28;20724;-62
2022/08/05 11:07:24;;;;;;;3.20;2.90;;;;;;;;;;5092376;28;20263;-63
2022/08/05 11:10:22;;;;;;;3.38;2.83;;;;;;;;;;5093164;28;20197;-62
2022/08/05 11:12:54;;;;;;;6.32;3.10;;;;;;;;;;5095096;28;20253;-61
2022/08/05 11:15:26;;;;;;;3.30;2.63;;;;;;;;;;5096669;28;20220;-60
2022/08/05 11:18:24;;;;;;;4.15;2.65;;;;;;;;;;5091970;28;20231;-61
2022/08/05 11:20:52;;;;;;;3.22;2.80;;;;;;;;;;5092744;28;20632;-62
2022/08/05 11:23:36;;;;;;;5.72;2.97;;;;;;;;;;5082451;28;20225;-62
2022/08/05 11:26:25;;;;;;;4.60;2.80;;;;;;;;;;5091582;28;20213;-62
2022/08/05 11:28:59;;;;;;;5.30;3.10;;;;;;;;;;5085580;28;20266;-61
2022/08/05 11:31:40;;;;;;;5.18;2.97;;;;;;;;;;5095676;28;20668;-62
2022/08/05 11:34:37;;;;;;;5.70;3.03;;;;;;;;;;5089510;28;20230;-61
2022/08/05 11:37:06;;;;;;;3.13;2.80;;;;;;;;;;5103266;28;20213;-61
2022/08/05 11:39:54;;;;;;;4.32;3.08;;;;;;;;;;5092341;28;20213;-62
2022/08/05 11:42:31;;;;;;;6.68;3.58;;;;;;;;;;5082272;28;20283;-61
2022/08/05 11:45:07;;;;;;;3.40;3.10;;;;;;;;;;5090818;28;20225;-61
2022/08/05 11:47:53;;;;;;;7.88;3.13;;;;;;;;;;5095396;28;20731;-61
2022/08/05 11:50:21;;;;;;;10.80;4.07;;;;;;;;;;5095475;28;20240;-62
2022/08/05 11:52:51;;;;;;;13.90;4.15;;;;;;;;;;5095979;28;20266;-61
2022/08/05 11:55:24;;;;;;;5.63;3.78;;;;;;;;;;5085824;28;20211;-62
2022/08/05 11:58:00;;;;;;;5.90;3.28;;;;;;;;;;5096204;28;20249;-62
2022/08/05 12:00:38;;;;;;;14.35;4.30;;;;;;;;;;5100147;28;20207;-62
2022/08/05 12:03:17;;;;;;;5.68;4.43;;;;;;;;;;5096885;28;20222;-62
2022/08/05 12:05:58;;;;;;;6.15;4.30;;;;;;;;;;5095389;28;20205;-62
2022/08/05 12:08:26;;;;;;;5.90;3.42;;;;;;;;;;5092608;28;20202;-62
2022/08/05 12:10:55;;;;;;;3.20;2.90;;;;;;;;;;5091960;28;20288;-62
2022/08/05 12:13:25;;;;;;;4.43;3.33;;;;;;;;;;5096526;28;20674;-62
2022/08/05 12:16:17;;;;;;;8.20;3.20;;;;;;;;;;5093373;28;20227;-60
2022/08/05 12:18:46;;;;;;;3.67;3.25;;;;;;;;;;5095070;28;20564;-62
2022/08/05 12:21:21;;;;;;;4.55;3.47;;;;;;;;;;5093792;28;20572;-62
2022/08/05 12:23:54;;;;;;;4.75;3.50;;;;;;;;;;5097279;28;20229;-62
2022/08/05 12:26:23;;;;;;;6.57;3.45;;;;;;;;;;5097949;28;20212;-62
2022/08/05 12:28:54;;;;;;;3.50;3.20;;;;;;;;;;5090953;28;20209;-62
2022/08/05 12:31:22;;;;;;;4.32;3.47;;;;;;;;;;5101992;28;20205;-62
2022/08/05 12:34:10;;;;;;;6.97;3.50;;;;;;;;;;5099444;28;20235;-62
2022/08/05 12:36:49;;;;;;;8.88;3.28;;;;;;;;;;5099989;28;20201;-60
2022/08/05 12:39:18;;;;;;;3.70;3.40;;;;;;;;;;5099704;28;20607;-59
2022/08/05 12:41:46;;;;;;;4.90;3.15;;;;;;;;;;5095549;28;20567;-60
2022/08/05 12:44:18;;;;;;;3.30;3.10;;;;;;;;;;5103845;28;20257;-60
2022/08/05 12:46:59;;;;;;;3.17;2.97;;;;;;;;;;5101021;28;20700;-61
2022/08/05 12:49:38;;;;;;;10.55;4.00;;;;;;;;;;5099636;28;20217;-61
2022/08/05 12:52:26;;;;;;;4.60;3.30;;;;;;;;;;5099636;28;20196;-61
2022/08/05 12:55:16;;;;;;;5.18;3.75;;;;;;;;;;5098967;28;20221;-61
2022/08/05 12:57:49;;;;;;;6.93;3.13;;;;;;;;;;5083675;28;20736;-62
2022/08/05 13:00:41;;;;;;;10.63;3.10;;;;;;;;;;5091472;28;20201;-62
2022/08/05 13:03:29;;;;;;;6.15;2.67;;;;;;;;;;5093410;28;20664;-62
2022/08/05 13:05:59;;;;;;;6.22;3.17;;;;;;;;;;5100279;28;20205;-62
2022/08/05 13:08:28;;;;;;;4.53;3.08;;;;;;;;;;5099198;28;20213;-62
2022/08/05 13:10:59;;;;;;;5.28;3.10;;;;;;;;;;5100072;28;20281;-62
2022/08/05 13:13:27;;;;;;;4.60;3.05;;;;;;;;;;5114693;28;20259;-62
2022/08/05 13:16:18;;;;;;;4.10;3.25;;;;;;;;;;5102461;28;20300;-62
2022/08/05 13:18:55;;;;;;;10.00;3.72;;;;;;;;;;5100207;28;20213;-62
2022/08/05 13:21:25;;;;;;;4.90;3.42;;;;;;;;;;5110707;28;20217;-62
2022/08/05 13:24:05;;;;;;;6.20;3.05;;;;;;;;;;5091155;28;20667;-62
2022/08/05 13:26:35;;;;;;;7.38;3.10;;;;;;;;;;5100044;28;20213;-62
2022/08/05 13:29:03;;;;;;;4.43;3.05;;;;;;;;;;5091092;28;20198;-62
2022/08/05 13:31:33;;;;;;;5.65;3.33;;;;;;;;;;5117356;28;20205;-62
2022/08/05 13:34:21;;;;;;;3.90;3.10;;;;;;;;;;5118253;28;20333;-61
2022/08/05 13:36:53;;;;;;;8.07;3.60;;;;;;;;;;5118408;28;20204;-62
2022/08/05 13:39:21;;;;;;;5.28;3.45;;;;;;;;;;5105665;28;20235;-62
2022/08/05 13:42:09;;;;;;;6.38;4.07;;;;;;;;;;5085872;28;20211;-62
2022/08/05 13:44:41;;;;;;;6.35;3.33;;;;;;;;;;5099171;28;20255;-61
2022/08/05 13:47:14;;;;;;;10.85;3.30;;;;;;;;;;5109563;28;20197;-61
2022/08/05 13:50:03;;;;;;;6.22;3.25;;;;;;;;;;5116744;28;20201;-61
2022/08/05 13:52:39;;;;;;;4.80;3.65;;;;;;;;;;5109499;28;20193;-61
2022/08/05 13:55:08;;;;;;;6.28;3.17;;;;;;;;;;5099510;28;20225;-61
2022/08/05 13:57:36;;;;;;;2.95;2.72;;;;;;;;;;5098731;28;20287;-61
2022/08/05 14:00:19;;;;;;;5.22;3.03;;;;;;;;;;5104269;28;20197;-61
2022/08/05 14:02:56;;;;;;;3.10;2.80;;;;;;;;;;5098683;28;20258;-61
2022/08/05 14:05:24;;;;;;;3.88;3.28;;;;;;;;;;5119599;28;20228;-61
2022/08/05 14:08:12;;;;;;;2.80;2.60;;;;;;;;;;5098507;28;20201;-61
2022/08/05 14:10:54;;;;;;;2.88;2.67;;;;;;;;;;5098959;28;20232;-61
2022/08/05 14:13:42;;;;;;;3.83;3.22;;;;;;;;;;5087211;28;20652;-61
2022/08/05 14:16:14;;;;;;;9.52;2.97;;;;;;;;;;5097374;28;20667;-62
2022/08/05 14:18:45;;;;;;;5.00;3.00;;;;;;;;;;5098987;28;20201;-64
2022/08/05 14:21:13;;;;;;;3.15;2.95;;;;;;;;;;5097488;28;20201;-63
2022/08/05 14:24:01;;;;;;;4.57;2.58;;;;;;;;;;5090842;28;20221;-63
2022/08/05 14:26:29;;;;;;;5.20;2.83;;;;;;;;;;5098904;28;20209;-63
2022/08/05 14:29:13;;;;;;;4.72;2.97;;;;;;;;;;5098162;28;20229;-63
2022/08/05 14:31:43;;;;;;;3.08;2.65;;;;;;;;;;5097495;28;20225;-63
2022/08/05 14:34:33;;;;;;;6.57;3.05;;;;;;;;;;5098457;28;20227;-64
2022/08/05 14:37:02;;;;;;;4.50;2.70;;;;;;;;;;5098895;28;20208;-63
2022/08/05 14:39:30;;;;;;;4.40;3.15;;;;;;;;;;5098451;28;20205;-63
2022/08/05 14:42:18;;;;;;;4.78;2.67;;;;;;;;;;5098323;28;20687;-63
2022/08/05 14:44:56;;;;;;;3.40;2.83;;;;;;;;;;5098421;28;20235;-63
2022/08/05 14:47:25;;;;;;;7.97;4.05;;;;;;;;;;5098506;28;20216;-64
2022/08/05 14:50:15;;;;;;;3.00;2.80;;;;;;;;;;5098394;28;20628;-63
2022/08/05 14:52:46;;;;;;;3.80;2.80;;;;;;;;;;5098772;28;20197;-63
2022/08/05 14:55:24;;;;;;;4.90;2.53;;;;;;;;;;5098520;28;20201;-63
2022/08/05 14:58:05;;;;;;;5.32;3.17;;;;;;;;;;5098263;28;20284;-63
2022/08/05 15:00:39;;;;;;;3.03;2.72;;;;;;;;;;5096051;28;20200;-63
2022/08/05 15:03:26;;;;;;;3.80;3.00;;;;;;;;;;5098048;28;20229;-63
2022/08/05 15:06:07;;;;;;;6.32;2.53;;;;;;;;;;5098311;28;20212;-64
2022/08/05 15:08:42;;;;;;;7.65;2.40;;;;;;;;;;5094770;28;20254;-63
2022/08/05 15:11:30;;;;;;;4.65;2.67;;;;;;;;;;5091053;28;20288;-63
2022/08/05 15:14:18;;;;;;;3.67;2.72;;;;;;;;;;5085674;28;20312;-63
2022/08/05 15:17:02;;;;;;;3.33;2.72;;;;;;;;;;5096708;28;20221;-64
2022/08/05 15:19:31;;;;;;;3.72;2.60;;;;;;;;;;5082726;28;20255;-64
2022/08/05 15:22:01;;;;;;;4.47;2.53;;;;;;;;;;5098134;28;20213;-64
2022/08/05 15:24:28;;;;;;;4.88;3.13;;;;;;;;;;5097577;28;20261;-64
2022/08/05 15:26:57;;;;;;;8.18;2.63;;;;;;;;;;5097978;28;20208;-63
2022/08/05 15:29:26;;;;;;;3.75;2.78;;;;;;;;;;5097639;28;20278;-65
2022/08/05 15:31:57;;;;;;;6.10;3.15;;;;;;;;;;5097231;28;20641;-61
2022/08/05 15:34:32;;;;;;;11.05;3.17;;;;;;;;;;5095416;28;20548;-61
2022/08/05 15:37:02;;;;;;;30.67;4.15;;;;;;;;;;5097907;28;20201;-61
2022/08/05 15:39:33;;;;;;;19.67;3.65;;;;;;;;;;5097565;28;20205;-61